sensor_id;sensor_type;location;lat;lon;timestamp;P1;durP1;ratioP1;P2;durP2;ratioP2
30583;SDS011;17357;59.404;18.414;2022-10-16T00:01:32;1.63;;;1.38;;
30583;SDS011;17357;59.404;18.414;2022-10-16T00:03:58;2.13;;;1.10;;
30583;SDS011;17357;59.404;18.414;2022-10-16T00:06:24;0.82;;;0.82;;
30583;SDS011;17357;59.404;18.414;2022-10-16T00:08:50;1.02;;;0.93;;
30583;SDS011;17357;59.404;18.414;2022-10-16T00:11:21;1.10;;;1.00;;
30583;SDS011;17357;59.404;18.414;2022-10-16T00:14:02;1.75;;;1.10;;
30583;SDS011;17357;59.404;18.414;2022-10-16T00:16:30;1.38;;;1.10;;
30583;SDS011;17357;59.404;18.414;2022-10-16T00:18:55;1.25;;;1.10;;
30583;SDS011;17357;59.404;18.414;2022-10-16T00:21:23;2.47;;;1.00;;
30583;SDS011;17357;59.404;18.414;2022-10-16T00:23:54;0.90;;;0.82;;
30583;SDS011;17357;59.404;18.414;2022-10-16T00:26:24;2.65;;;1.10;;
30583;SDS011;17357;59.404;18.414;2022-10-16T00:28:50;1.10;;;1.00;;
30583;SDS011;17357;59.404;18.414;2022-10-16T00:31:16;0.82;;;0.80;;
30583;SDS011;17357;59.404;18.414;2022-10-16T00:33:43;1.10;;;0.70;;
30583;SDS011;17357;59.404;18.414;2022-10-16T00:36:10;0.82;;;0.80;;
30583;SDS011;17357;59.404;18.414;2022-10-16T00:38:38;1.35;;;0.88;;
30583;SDS011;17357;59.404;18.414;2022-10-16T00:41:04;1.77;;;0.82;;
30583;SDS011;17357;59.404;18.414;2022-10-16T00:46:18;1.00;;;0.80;;
30583;SDS011;17357;59.404;18.414;2022-10-16T00:48:53;1.38;;;0.90;;
30583;SDS011;17357;59.404;18.414;2022-10-16T00:51:21;0.68;;;0.68;;
30583;SDS011;17357;59.404;18.414;2022-10-16T00:53:50;1.02;;;0.95;;
30583;SDS011;17357;59.404;18.414;2022-10-16T00:56:16;0.98;;;0.88;;
30583;SDS011;17357;59.404;18.414;2022-10-16T00:58:43;1.55;;;0.90;;
30583;SDS011;17357;59.404;18.414;2022-10-16T01:01:08;0.98;;;0.77;;
30583;SDS011;17357;59.404;18.414;2022-10-16T01:03:35;1.90;;;1.05;;
30583;SDS011;17357;59.404;18.414;2022-10-16T01:08:39;0.70;;;0.70;;
30583;SDS011;17357;59.404;18.414;2022-10-16T01:14:10;1.77;;;1.10;;
30583;SDS011;17357;59.404;18.414;2022-10-16T01:16:48;0.98;;;0.90;;
30583;SDS011;17357;59.404;18.414;2022-10-16T01:21:55;0.70;;;0.70;;
30583;SDS011;17357;59.404;18.414;2022-10-16T01:29:54;0.70;;;0.70;;
30583;SDS011;17357;59.404;18.414;2022-10-16T01:35:24;1.70;;;0.80;;
30583;SDS011;17357;59.404;18.414;2022-10-16T01:37:56;1.00;;;0.90;;
30583;SDS011;17357;59.404;18.414;2022-10-16T01:40:28;0.80;;;0.80;;
30583;SDS011;17357;59.404;18.414;2022-10-16T01:42:58;0.82;;;0.80;;
30583;SDS011;17357;59.404;18.414;2022-10-16T01:45:26;2.72;;;1.13;;
30583;SDS011;17357;59.404;18.414;2022-10-16T01:47:54;1.02;;;0.80;;
30583;SDS011;17357;59.404;18.414;2022-10-16T01:50:20;0.68;;;0.68;;
30583;SDS011;17357;59.404;18.414;2022-10-16T01:52:48;0.80;;;0.70;;
30583;SDS011;17357;59.404;18.414;2022-10-16T01:55:18;0.82;;;0.70;;
30583;SDS011;17357;59.404;18.414;2022-10-16T01:57:49;0.73;;;0.73;;
30583;SDS011;17357;59.404;18.414;2022-10-16T02:00:18;0.52;;;0.50;;
30583;SDS011;17357;59.404;18.414;2022-10-16T02:02:47;1.10;;;0.80;;
30583;SDS011;17357;59.404;18.414;2022-10-16T02:07:48;0.68;;;0.60;;
30583;SDS011;17357;59.404;18.414;2022-10-16T02:10:14;0.40;;;0.40;;
30583;SDS011;17357;59.404;18.414;2022-10-16T02:12:41;1.30;;;0.80;;
30583;SDS011;17357;59.404;18.414;2022-10-16T02:15:12;0.85;;;0.60;;
30583;SDS011;17357;59.404;18.414;2022-10-16T02:17:38;0.65;;;0.63;;
30583;SDS011;17357;59.404;18.414;2022-10-16T02:20:04;0.75;;;0.70;;
30583;SDS011;17357;59.404;18.414;2022-10-16T02:22:32;0.88;;;0.80;;
30583;SDS011;17357;59.404;18.414;2022-10-16T02:30:33;1.37;;;0.77;;
30583;SDS011;17357;59.404;18.414;2022-10-16T02:33:02;0.98;;;0.50;;
30583;SDS011;17357;59.404;18.414;2022-10-16T02:35:31;0.47;;;0.47;;
30583;SDS011;17357;59.404;18.414;2022-10-16T02:37:57;1.00;;;0.77;;
30583;SDS011;17357;59.404;18.414;2022-10-16T02:40:23;1.02;;;0.70;;
30583;SDS011;17357;59.404;18.414;2022-10-16T02:42:50;1.40;;;0.50;;
30583;SDS011;17357;59.404;18.414;2022-10-16T02:45:17;0.43;;;0.40;;
30583;SDS011;17357;59.404;18.414;2022-10-16T02:47:43;0.50;;;0.50;;
30583;SDS011;17357;59.404;18.414;2022-10-16T02:50:09;1.58;;;0.98;;
30583;SDS011;17357;59.404;18.414;2022-10-16T02:52:34;0.70;;;0.50;;
30583;SDS011;17357;59.404;18.414;2022-10-16T02:55:00;0.60;;;0.60;;
30583;SDS011;17357;59.404;18.414;2022-10-16T02:57:25;0.85;;;0.70;;
30583;SDS011;17357;59.404;18.414;2022-10-16T02:59:51;0.50;;;0.50;;
30583;SDS011;17357;59.404;18.414;2022-10-16T03:02:16;1.05;;;0.60;;
30583;SDS011;17357;59.404;18.414;2022-10-16T03:04:42;0.50;;;0.50;;
30583;SDS011;17357;59.404;18.414;2022-10-16T03:07:07;0.60;;;0.40;;
30583;SDS011;17357;59.404;18.414;2022-10-16T03:09:32;0.68;;;0.65;;
30583;SDS011;17357;59.404;18.414;2022-10-16T03:11:58;0.82;;;0.70;;
30583;SDS011;17357;59.404;18.414;2022-10-16T03:14:24;0.70;;;0.60;;
30583;SDS011;17357;59.404;18.414;2022-10-16T03:16:49;0.95;;;0.70;;
30583;SDS011;17357;59.404;18.414;2022-10-16T03:19:17;0.88;;;0.50;;
30583;SDS011;17357;59.404;18.414;2022-10-16T03:21:43;0.52;;;0.50;;
30583;SDS011;17357;59.404;18.414;2022-10-16T03:24:09;0.73;;;0.47;;
30583;SDS011;17357;59.404;18.414;2022-10-16T03:26:34;0.70;;;0.47;;
30583;SDS011;17357;59.404;18.414;2022-10-16T03:28:59;1.67;;;0.90;;
30583;SDS011;17357;59.404;18.414;2022-10-16T03:31:25;2.35;;;0.50;;
30583;SDS011;17357;59.404;18.414;2022-10-16T03:33:51;0.50;;;0.50;;
30583;SDS011;17357;59.404;18.414;2022-10-16T03:36:16;0.63;;;0.60;;
30583;SDS011;17357;59.404;18.414;2022-10-16T03:38:41;1.60;;;0.60;;
30583;SDS011;17357;59.404;18.414;2022-10-16T03:41:07;0.50;;;0.50;;
30583;SDS011;17357;59.404;18.414;2022-10-16T03:43:32;0.73;;;0.57;;
30583;SDS011;17357;59.404;18.414;2022-10-16T03:45:58;0.55;;;0.50;;
30583;SDS011;17357;59.404;18.414;2022-10-16T03:48:23;0.70;;;0.52;;
30583;SDS011;17357;59.404;18.414;2022-10-16T03:50:49;0.90;;;0.60;;
30583;SDS011;17357;59.404;18.414;2022-10-16T03:53:15;0.80;;;0.57;;
30583;SDS011;17357;59.404;18.414;2022-10-16T03:55:41;0.60;;;0.60;;
30583;SDS011;17357;59.404;18.414;2022-10-16T03:58:07;1.55;;;0.60;;
30583;SDS011;17357;59.404;18.414;2022-10-16T04:00:33;0.55;;;0.52;;
30583;SDS011;17357;59.404;18.414;2022-10-16T04:02:59;0.88;;;0.65;;
30583;SDS011;17357;59.404;18.414;2022-10-16T04:05:24;0.52;;;0.52;;
30583;SDS011;17357;59.404;18.414;2022-10-16T04:07:50;0.60;;;0.43;;
30583;SDS011;17357;59.404;18.414;2022-10-16T04:10:15;0.82;;;0.73;;
30583;SDS011;17357;59.404;18.414;2022-10-16T04:12:40;0.45;;;0.45;;
30583;SDS011;17357;59.404;18.414;2022-10-16T04:15:06;1.58;;;0.60;;
30583;SDS011;17357;59.404;18.414;2022-10-16T04:17:32;0.73;;;0.63;;
30583;SDS011;17357;59.404;18.414;2022-10-16T04:19:57;1.05;;;0.70;;
30583;SDS011;17357;59.404;18.414;2022-10-16T04:22:22;0.98;;;0.75;;
30583;SDS011;17357;59.404;18.414;2022-10-16T04:24:48;1.02;;;0.40;;
30583;SDS011;17357;59.404;18.414;2022-10-16T04:27:13;0.60;;;0.60;;
30583;SDS011;17357;59.404;18.414;2022-10-16T04:29:38;1.40;;;0.75;;
30583;SDS011;17357;59.404;18.414;2022-10-16T04:32:04;1.92;;;0.65;;
30583;SDS011;17357;59.404;18.414;2022-10-16T04:34:29;0.95;;;0.80;;
30583;SDS011;17357;59.404;18.414;2022-10-16T04:36:55;0.55;;;0.50;;
30583;SDS011;17357;59.404;18.414;2022-10-16T04:39:20;0.65;;;0.60;;
30583;SDS011;17357;59.404;18.414;2022-10-16T04:41:45;0.50;;;0.45;;
30583;SDS011;17357;59.404;18.414;2022-10-16T04:44:11;0.80;;;0.65;;
30583;SDS011;17357;59.404;18.414;2022-10-16T04:46:36;0.60;;;0.60;;
30583;SDS011;17357;59.404;18.414;2022-10-16T04:49:01;0.30;;;0.30;;
30583;SDS011;17357;59.404;18.414;2022-10-16T04:51:27;0.82;;;0.75;;
30583;SDS011;17357;59.404;18.414;2022-10-16T04:53:53;0.98;;;0.65;;
30583;SDS011;17357;59.404;18.414;2022-10-16T04:56:19;1.10;;;0.60;;
30583;SDS011;17357;59.404;18.414;2022-10-16T04:58:46;1.25;;;0.60;;
30583;SDS011;17357;59.404;18.414;2022-10-16T05:01:12;0.45;;;0.40;;
30583;SDS011;17357;59.404;18.414;2022-10-16T05:03:38;0.90;;;0.80;;
30583;SDS011;17357;59.404;18.414;2022-10-16T05:06:04;1.02;;;0.60;;
30583;SDS011;17357;59.404;18.414;2022-10-16T05:08:31;0.43;;;0.43;;
30583;SDS011;17357;59.404;18.414;2022-10-16T05:10:56;1.25;;;0.68;;
30583;SDS011;17357;59.404;18.414;2022-10-16T05:13:22;0.50;;;0.40;;
30583;SDS011;17357;59.404;18.414;2022-10-16T05:15:48;0.45;;;0.45;;
30583;SDS011;17357;59.404;18.414;2022-10-16T05:18:13;0.40;;;0.40;;
30583;SDS011;17357;59.404;18.414;2022-10-16T05:20:39;0.65;;;0.60;;
30583;SDS011;17357;59.404;18.414;2022-10-16T05:23:04;0.22;;;0.22;;
30583;SDS011;17357;59.404;18.414;2022-10-16T05:25:30;0.30;;;0.30;;
30583;SDS011;17357;59.404;18.414;2022-10-16T05:27:55;0.40;;;0.38;;
30583;SDS011;17357;59.404;18.414;2022-10-16T05:30:20;0.70;;;0.50;;
30583;SDS011;17357;59.404;18.414;2022-10-16T05:32:47;1.10;;;0.40;;
30583;SDS011;17357;59.404;18.414;2022-10-16T05:35:14;0.40;;;0.30;;
30583;SDS011;17357;59.404;18.414;2022-10-16T05:37:40;2.00;;;0.32;;
30583;SDS011;17357;59.404;18.414;2022-10-16T05:40:06;0.30;;;0.30;;
30583;SDS011;17357;59.404;18.414;2022-10-16T05:42:31;0.30;;;0.30;;
30583;SDS011;17357;59.404;18.414;2022-10-16T05:44:57;0.25;;;0.25;;
30583;SDS011;17357;59.404;18.414;2022-10-16T05:47:22;0.60;;;0.40;;
30583;SDS011;17357;59.404;18.414;2022-10-16T05:49:48;0.40;;;0.40;;
30583;SDS011;17357;59.404;18.414;2022-10-16T05:52:13;1.30;;;0.50;;
30583;SDS011;17357;59.404;18.414;2022-10-16T05:54:38;0.57;;;0.28;;
30583;SDS011;17357;59.404;18.414;2022-10-16T05:57:04;0.28;;;0.25;;
30583;SDS011;17357;59.404;18.414;2022-10-16T05:59:30;0.40;;;0.30;;
30583;SDS011;17357;59.404;18.414;2022-10-16T06:01:56;0.50;;;0.20;;
30583;SDS011;17357;59.404;18.414;2022-10-16T06:04:22;0.55;;;0.30;;
30583;SDS011;17357;59.404;18.414;2022-10-16T06:06:47;0.80;;;0.40;;
30583;SDS011;17357;59.404;18.414;2022-10-16T06:09:12;0.50;;;0.30;;
30583;SDS011;17357;59.404;18.414;2022-10-16T06:11:38;0.30;;;0.20;;
30583;SDS011;17357;59.404;18.414;2022-10-16T06:14:03;0.45;;;0.38;;
30583;SDS011;17357;59.404;18.414;2022-10-16T06:16:32;0.77;;;0.50;;
30583;SDS011;17357;59.404;18.414;2022-10-16T06:18:58;0.57;;;0.28;;
30583;SDS011;17357;59.404;18.414;2022-10-16T06:21:26;0.40;;;0.30;;
30583;SDS011;17357;59.404;18.414;2022-10-16T06:23:54;0.20;;;0.20;;
30583;SDS011;17357;59.404;18.414;2022-10-16T06:26:21;0.60;;;0.25;;
30583;SDS011;17357;59.404;18.414;2022-10-16T06:28:48;1.17;;;0.40;;
30583;SDS011;17357;59.404;18.414;2022-10-16T06:31:14;0.32;;;0.30;;
30583;SDS011;17357;59.404;18.414;2022-10-16T06:33:40;0.35;;;0.20;;
30583;SDS011;17357;59.404;18.414;2022-10-16T06:36:07;0.45;;;0.30;;
30583;SDS011;17357;59.404;18.414;2022-10-16T06:38:34;1.13;;;0.40;;
30583;SDS011;17357;59.404;18.414;2022-10-16T06:41:00;0.20;;;0.20;;
30583;SDS011;17357;59.404;18.414;2022-10-16T06:43:26;0.30;;;0.30;;
30583;SDS011;17357;59.404;18.414;2022-10-16T06:48:23;0.30;;;0.30;;
30583;SDS011;17357;59.404;18.414;2022-10-16T06:50:55;0.70;;;0.35;;
30583;SDS011;17357;59.404;18.414;2022-10-16T06:53:25;1.48;;;0.30;;
30583;SDS011;17357;59.404;18.414;2022-10-16T06:55:51;0.80;;;0.35;;
30583;SDS011;17357;59.404;18.414;2022-10-16T06:58:17;0.40;;;0.40;;
30583;SDS011;17357;59.404;18.414;2022-10-16T07:00:43;2.03;;;0.50;;
30583;SDS011;17357;59.404;18.414;2022-10-16T07:03:08;0.28;;;0.28;;
30583;SDS011;17357;59.404;18.414;2022-10-16T07:05:37;0.20;;;0.20;;
30583;SDS011;17357;59.404;18.414;2022-10-16T07:08:03;0.73;;;0.40;;
30583;SDS011;17357;59.404;18.414;2022-10-16T07:10:30;2.20;;;0.65;;
30583;SDS011;17357;59.404;18.414;2022-10-16T07:12:56;0.45;;;0.20;;
30583;SDS011;17357;59.404;18.414;2022-10-16T07:15:21;0.35;;;0.32;;
30583;SDS011;17357;59.404;18.414;2022-10-16T07:17:47;0.17;;;0.17;;
30583;SDS011;17357;59.404;18.414;2022-10-16T07:20:12;0.50;;;0.25;;
30583;SDS011;17357;59.404;18.414;2022-10-16T07:22:37;1.10;;;0.30;;
30583;SDS011;17357;59.404;18.414;2022-10-16T07:25:03;0.13;;;0.10;;
30583;SDS011;17357;59.404;18.414;2022-10-16T07:27:28;0.20;;;0.20;;
30583;SDS011;17357;59.404;18.414;2022-10-16T07:29:54;0.57;;;0.47;;
30583;SDS011;17357;59.404;18.414;2022-10-16T07:32:19;1.52;;;0.28;;
30583;SDS011;17357;59.404;18.414;2022-10-16T07:34:44;0.20;;;0.17;;
30583;SDS011;17357;59.404;18.414;2022-10-16T07:37:10;0.15;;;0.10;;
30583;SDS011;17357;59.404;18.414;2022-10-16T07:39:36;0.30;;;0.28;;
30583;SDS011;17357;59.404;18.414;2022-10-16T07:42:01;0.00;;;0.00;;
30583;SDS011;17357;59.404;18.414;2022-10-16T07:44:27;0.63;;;0.20;;
30583;SDS011;17357;59.404;18.414;2022-10-16T07:46:52;0.30;;;0.20;;
30583;SDS011;17357;59.404;18.414;2022-10-16T07:49:17;1.85;;;0.20;;
30583;SDS011;17357;59.404;18.414;2022-10-16T07:51:43;0.35;;;0.22;;
30583;SDS011;17357;59.404;18.414;2022-10-16T07:54:09;0.20;;;0.20;;
30583;SDS011;17357;59.404;18.414;2022-10-16T07:56:34;0.35;;;0.22;;
30583;SDS011;17357;59.404;18.414;2022-10-16T07:59:00;0.30;;;0.20;;
30583;SDS011;17357;59.404;18.414;2022-10-16T08:01:25;0.20;;;0.20;;
30583;SDS011;17357;59.404;18.414;2022-10-16T08:03:51;0.17;;;0.17;;
30583;SDS011;17357;59.404;18.414;2022-10-16T08:06:18;0.98;;;0.20;;
30583;SDS011;17357;59.404;18.414;2022-10-16T08:08:44;0.68;;;0.40;;
30583;SDS011;17357;59.404;18.414;2022-10-16T08:11:09;0.57;;;0.52;;
30583;SDS011;17357;59.404;18.414;2022-10-16T08:13:35;0.90;;;0.20;;
30583;SDS011;17357;59.404;18.414;2022-10-16T08:16:01;2.03;;;0.30;;
30583;SDS011;17357;59.404;18.414;2022-10-16T08:18:28;1.23;;;0.30;;
30583;SDS011;17357;59.404;18.414;2022-10-16T08:20:57;0.68;;;0.30;;
30583;SDS011;17357;59.404;18.414;2022-10-16T08:23:25;0.22;;;0.22;;
30583;SDS011;17357;59.404;18.414;2022-10-16T08:25:51;0.25;;;0.25;;
30583;SDS011;17357;59.404;18.414;2022-10-16T08:28:18;0.22;;;0.20;;
30583;SDS011;17357;59.404;18.414;2022-10-16T08:30:43;0.50;;;0.20;;
30583;SDS011;17357;59.404;18.414;2022-10-16T08:33:09;0.65;;;0.20;;
30583;SDS011;17357;59.404;18.414;2022-10-16T08:35:34;0.15;;;0.13;;
30583;SDS011;17357;59.404;18.414;2022-10-16T08:37:59;0.30;;;0.30;;
30583;SDS011;17357;59.404;18.414;2022-10-16T08:40:26;0.95;;;0.30;;
30583;SDS011;17357;59.404;18.414;2022-10-16T08:43:12;0.50;;;0.20;;
30583;SDS011;17357;59.404;18.414;2022-10-16T08:50:54;0.52;;;0.30;;
30583;SDS011;17357;59.404;18.414;2022-10-16T08:53:40;0.40;;;0.40;;
30583;SDS011;17357;59.404;18.414;2022-10-16T08:56:09;0.27;;;0.27;;
30583;SDS011;17357;59.404;18.414;2022-10-16T08:58:35;0.30;;;0.30;;
30583;SDS011;17357;59.404;18.414;2022-10-16T09:01:04;0.30;;;0.30;;
30583;SDS011;17357;59.404;18.414;2022-10-16T09:18:41;0.20;;;0.20;;
30583;SDS011;17357;59.404;18.414;2022-10-16T09:21:36;0.40;;;0.28;;
30583;SDS011;17357;59.404;18.414;2022-10-16T09:24:12;0.10;;;0.10;;
30583;SDS011;17357;59.404;18.414;2022-10-16T09:26:40;0.65;;;0.50;;
30583;SDS011;17357;59.404;18.414;2022-10-16T09:29:09;1.23;;;0.20;;
30583;SDS011;17357;59.404;18.414;2022-10-16T09:31:37;1.05;;;0.40;;
30583;SDS011;17357;59.404;18.414;2022-10-16T09:34:03;0.30;;;0.30;;
30583;SDS011;17357;59.404;18.414;2022-10-16T09:36:32;0.55;;;0.28;;
30583;SDS011;17357;59.404;18.414;2022-10-16T09:39:09;0.35;;;0.20;;
30583;SDS011;17357;59.404;18.414;2022-10-16T09:41:37;0.20;;;0.20;;
30583;SDS011;17357;59.404;18.414;2022-10-16T09:44:06;0.38;;;0.30;;
30583;SDS011;17357;59.404;18.414;2022-10-16T09:46:41;0.20;;;0.20;;
30583;SDS011;17357;59.404;18.414;2022-10-16T09:49:25;0.20;;;0.20;;
30583;SDS011;17357;59.404;18.414;2022-10-16T09:52:02;0.90;;;0.40;;
30583;SDS011;17357;59.404;18.414;2022-10-16T09:54:29;1.10;;;0.40;;
30583;SDS011;17357;59.404;18.414;2022-10-16T09:57:03;0.28;;;0.20;;
30583;SDS011;17357;59.404;18.414;2022-10-16T09:59:31;1.20;;;0.30;;
30583;SDS011;17357;59.404;18.414;2022-10-16T10:01:56;0.30;;;0.30;;
30583;SDS011;17357;59.404;18.414;2022-10-16T10:04:36;0.45;;;0.30;;
30583;SDS011;17357;59.404;18.414;2022-10-16T10:07:04;0.77;;;0.40;;
30583;SDS011;17357;59.404;18.414;2022-10-16T10:09:38;0.63;;;0.32;;
30583;SDS011;17357;59.404;18.414;2022-10-16T10:12:05;1.25;;;0.45;;
30583;SDS011;17357;59.404;18.414;2022-10-16T10:14:46;0.60;;;0.22;;
30583;SDS011;17357;59.404;18.414;2022-10-16T10:33:20;0.20;;;0.20;;
30583;SDS011;17357;59.404;18.414;2022-10-16T10:38:30;0.40;;;0.20;;
30583;SDS011;17357;59.404;18.414;2022-10-16T11:00:28;1.48;;;0.17;;
30583;SDS011;17357;59.404;18.414;2022-10-16T11:03:19;0.45;;;0.22;;
30583;SDS011;17357;59.404;18.414;2022-10-16T11:11:16;0.65;;;0.30;;
30583;SDS011;17357;59.404;18.414;2022-10-16T11:13:55;0.98;;;0.20;;
30583;SDS011;17357;59.404;18.414;2022-10-16T11:16:35;0.40;;;0.40;;
30583;SDS011;17357;59.404;18.414;2022-10-16T11:19:10;0.57;;;0.32;;
30583;SDS011;17357;59.404;18.414;2022-10-16T11:27:12;0.85;;;0.30;;
30583;SDS011;17357;59.404;18.414;2022-10-16T11:29:46;0.82;;;0.30;;
30583;SDS011;17357;59.404;18.414;2022-10-16T11:32:22;0.82;;;0.50;;
30583;SDS011;17357;59.404;18.414;2022-10-16T11:34:53;0.65;;;0.20;;
30583;SDS011;17357;59.404;18.414;2022-10-16T11:37:30;1.10;;;0.30;;
30583;SDS011;17357;59.404;18.414;2022-10-16T11:43:04;2.60;;;0.50;;
30583;SDS011;17357;59.404;18.414;2022-10-16T11:45:41;0.98;;;0.22;;
30583;SDS011;17357;59.404;18.414;2022-10-16T11:53:23;0.73;;;0.40;;
30583;SDS011;17357;59.404;18.414;2022-10-16T11:56:15;0.98;;;0.30;;
30583;SDS011;17357;59.404;18.414;2022-10-16T12:04:21;1.55;;;0.13;;
30583;SDS011;17357;59.404;18.414;2022-10-16T12:09:32;0.30;;;0.30;;
30583;SDS011;17357;59.404;18.414;2022-10-16T12:12:00;0.50;;;0.30;;
30583;SDS011;17357;59.404;18.414;2022-10-16T12:17:39;1.00;;;0.40;;
30583;SDS011;17357;59.404;18.414;2022-10-16T12:19:45;0.98;;;0.30;;
30583;SDS011;17357;59.404;18.414;2022-10-16T12:22:22;0.32;;;0.30;;
30583;SDS011;17357;59.404;18.414;2022-10-16T12:24:50;0.10;;;0.10;;
30583;SDS011;17357;59.404;18.414;2022-10-16T12:27:37;0.52;;;0.30;;
30583;SDS011;17357;59.404;18.414;2022-10-16T12:30:03;1.75;;;0.20;;
30583;SDS011;17357;59.404;18.414;2022-10-16T12:32:31;0.38;;;0.20;;
30583;SDS011;17357;59.404;18.414;2022-10-16T12:34:59;1.40;;;0.70;;
30583;SDS011;17357;59.404;18.414;2022-10-16T12:37:28;0.10;;;0.10;;
30583;SDS011;17357;59.404;18.414;2022-10-16T12:40:14;0.20;;;0.20;;
30583;SDS011;17357;59.404;18.414;2022-10-16T12:43:10;0.43;;;0.20;;
30583;SDS011;17357;59.404;18.414;2022-10-16T12:45:45;0.28;;;0.17;;
30583;SDS011;17357;59.404;18.414;2022-10-16T12:48:18;0.35;;;0.20;;
30583;SDS011;17357;59.404;18.414;2022-10-16T12:50:46;1.35;;;0.30;;
30583;SDS011;17357;59.404;18.414;2022-10-16T12:53:22;0.85;;;0.30;;
30583;SDS011;17357;59.404;18.414;2022-10-16T12:59:28;1.40;;;0.20;;
30583;SDS011;17357;59.404;18.414;2022-10-16T13:01:37;0.28;;;0.20;;
30583;SDS011;17357;59.404;18.414;2022-10-16T13:04:13;1.35;;;0.17;;
30583;SDS011;17357;59.404;18.414;2022-10-16T13:18:05;0.60;;;0.25;;
30583;SDS011;17357;59.404;18.414;2022-10-16T13:20:51;0.63;;;0.30;;
30583;SDS011;17357;59.404;18.414;2022-10-16T13:23:37;0.35;;;0.20;;
30583;SDS011;17357;59.404;18.414;2022-10-16T13:26:10;0.20;;;0.20;;
30583;SDS011;17357;59.404;18.414;2022-10-16T13:29:07;1.35;;;0.32;;
30583;SDS011;17357;59.404;18.414;2022-10-16T13:31:32;1.38;;;0.43;;
30583;SDS011;17357;59.404;18.414;2022-10-16T13:33:59;0.45;;;0.20;;
30583;SDS011;17357;59.404;18.414;2022-10-16T13:39:06;0.13;;;0.10;;
30583;SDS011;17357;59.404;18.414;2022-10-16T13:41:36;0.85;;;0.30;;
30583;SDS011;17357;59.404;18.414;2022-10-16T13:44:02;0.52;;;0.30;;
30583;SDS011;17357;59.404;18.414;2022-10-16T13:46:28;0.50;;;0.30;;
30583;SDS011;17357;59.404;18.414;2022-10-16T13:49:03;0.38;;;0.30;;
30583;SDS011;17357;59.404;18.414;2022-10-16T13:51:31;0.28;;;0.20;;
30583;SDS011;17357;59.404;18.414;2022-10-16T13:53:57;1.60;;;0.30;;
30583;SDS011;17357;59.404;18.414;2022-10-16T13:56:27;2.10;;;0.30;;
30583;SDS011;17357;59.404;18.414;2022-10-16T14:01:30;0.32;;;0.20;;
30583;SDS011;17357;59.404;18.414;2022-10-16T14:04:05;0.82;;;0.50;;
30583;SDS011;17357;59.404;18.414;2022-10-16T14:06:33;1.17;;;0.20;;
30583;SDS011;17357;59.404;18.414;2022-10-16T14:11:42;0.90;;;0.30;;
30583;SDS011;17357;59.404;18.414;2022-10-16T14:14:11;0.50;;;0.35;;
30583;SDS011;17357;59.404;18.414;2022-10-16T14:16:37;1.02;;;0.38;;
30583;SDS011;17357;59.404;18.414;2022-10-16T14:19:13;2.13;;;0.50;;
30583;SDS011;17357;59.404;18.414;2022-10-16T14:21:43;1.25;;;0.28;;
30583;SDS011;17357;59.404;18.414;2022-10-16T14:24:12;0.35;;;0.30;;
30583;SDS011;17357;59.404;18.414;2022-10-16T14:26:46;0.90;;;0.20;;
30583;SDS011;17357;59.404;18.414;2022-10-16T14:29:14;0.50;;;0.22;;
30583;SDS011;17357;59.404;18.414;2022-10-16T14:31:43;0.63;;;0.20;;
30583;SDS011;17357;59.404;18.414;2022-10-16T14:34:33;0.50;;;0.30;;
30583;SDS011;17357;59.404;18.414;2022-10-16T14:37:00;0.60;;;0.25;;
30583;SDS011;17357;59.404;18.414;2022-10-16T14:39:33;0.30;;;0.30;;
30583;SDS011;17357;59.404;18.414;2022-10-16T14:42:00;0.40;;;0.30;;
30583;SDS011;17357;59.404;18.414;2022-10-16T14:44:27;0.95;;;0.40;;
30583;SDS011;17357;59.404;18.414;2022-10-16T14:46:56;1.42;;;0.32;;
30583;SDS011;17357;59.404;18.414;2022-10-16T14:49:22;0.10;;;0.10;;
30583;SDS011;17357;59.404;18.414;2022-10-16T14:51:49;0.08;;;0.08;;
30583;SDS011;17357;59.404;18.414;2022-10-16T14:54:15;0.40;;;0.30;;
30583;SDS011;17357;59.404;18.414;2022-10-16T14:56:47;0.82;;;0.40;;
30583;SDS011;17357;59.404;18.414;2022-10-16T14:59:14;0.65;;;0.20;;
30583;SDS011;17357;59.404;18.414;2022-10-16T15:01:43;0.85;;;0.20;;
30583;SDS011;17357;59.404;18.414;2022-10-16T15:04:09;0.22;;;0.22;;
30583;SDS011;17357;59.404;18.414;2022-10-16T15:06:37;2.83;;;0.22;;
30583;SDS011;17357;59.404;18.414;2022-10-16T15:09:02;0.63;;;0.30;;
30583;SDS011;17357;59.404;18.414;2022-10-16T15:11:28;4.28;;;0.32;;
30583;SDS011;17357;59.404;18.414;2022-10-16T15:13:56;2.13;;;0.38;;
30583;SDS011;17357;59.404;18.414;2022-10-16T15:16:21;2.30;;;0.30;;
30583;SDS011;17357;59.404;18.414;2022-10-16T15:18:47;1.75;;;0.73;;
30583;SDS011;17357;59.404;18.414;2022-10-16T15:21:20;0.98;;;0.40;;
30583;SDS011;17357;59.404;18.414;2022-10-16T15:23:51;1.10;;;0.50;;
30583;SDS011;17357;59.404;18.414;2022-10-16T15:26:16;0.35;;;0.22;;
30583;SDS011;17357;59.404;18.414;2022-10-16T15:28:41;0.40;;;0.20;;
30583;SDS011;17357;59.404;18.414;2022-10-16T15:31:07;0.30;;;0.20;;
30583;SDS011;17357;59.404;18.414;2022-10-16T15:33:32;1.02;;;0.30;;
30583;SDS011;17357;59.404;18.414;2022-10-16T15:35:59;1.30;;;0.30;;
30583;SDS011;17357;59.404;18.414;2022-10-16T15:38:26;1.08;;;0.22;;
30583;SDS011;17357;59.404;18.414;2022-10-16T15:40:52;1.08;;;0.20;;
30583;SDS011;17357;59.404;18.414;2022-10-16T15:43:18;0.32;;;0.15;;
30583;SDS011;17357;59.404;18.414;2022-10-16T15:45:44;0.95;;;0.28;;
30583;SDS011;17357;59.404;18.414;2022-10-16T15:48:17;0.55;;;0.20;;
30583;SDS011;17357;59.404;18.414;2022-10-16T15:50:42;0.10;;;0.10;;
30583;SDS011;17357;59.404;18.414;2022-10-16T15:53:08;1.10;;;0.25;;
30583;SDS011;17357;59.404;18.414;2022-10-16T15:55:33;2.05;;;0.30;;
30583;SDS011;17357;59.404;18.414;2022-10-16T15:57:58;0.10;;;0.10;;
30583;SDS011;17357;59.404;18.414;2022-10-16T16:00:24;0.52;;;0.20;;
30583;SDS011;17357;59.404;18.414;2022-10-16T16:02:53;0.57;;;0.20;;
30583;SDS011;17357;59.404;18.414;2022-10-16T16:05:19;0.52;;;0.17;;
30583;SDS011;17357;59.404;18.414;2022-10-16T16:07:46;1.23;;;0.35;;
30583;SDS011;17357;59.404;18.414;2022-10-16T16:10:12;0.50;;;0.20;;
30583;SDS011;17357;59.404;18.414;2022-10-16T16:12:38;0.50;;;0.30;;
30583;SDS011;17357;59.404;18.414;2022-10-16T16:15:04;1.55;;;0.30;;
30583;SDS011;17357;59.404;18.414;2022-10-16T16:17:31;0.60;;;0.30;;
30583;SDS011;17357;59.404;18.414;2022-10-16T16:19:58;0.47;;;0.30;;
30583;SDS011;17357;59.404;18.414;2022-10-16T16:22:24;0.95;;;0.35;;
30583;SDS011;17357;59.404;18.414;2022-10-16T16:24:49;0.45;;;0.25;;
30583;SDS011;17357;59.404;18.414;2022-10-16T16:27:15;1.63;;;0.38;;
30583;SDS011;17357;59.404;18.414;2022-10-16T16:29:40;0.20;;;0.20;;
30583;SDS011;17357;59.404;18.414;2022-10-16T16:32:06;0.20;;;0.20;;
30583;SDS011;17357;59.404;18.414;2022-10-16T16:34:31;0.17;;;0.17;;
30583;SDS011;17357;59.404;18.414;2022-10-16T16:36:57;0.63;;;0.32;;
30583;SDS011;17357;59.404;18.414;2022-10-16T16:39:22;0.35;;;0.22;;
30583;SDS011;17357;59.404;18.414;2022-10-16T16:41:48;0.63;;;0.38;;
30583;SDS011;17357;59.404;18.414;2022-10-16T16:44:14;0.40;;;0.25;;
30583;SDS011;17357;59.404;18.414;2022-10-16T16:46:41;0.40;;;0.30;;
30583;SDS011;17357;59.404;18.414;2022-10-16T16:49:08;0.55;;;0.40;;
30583;SDS011;17357;59.404;18.414;2022-10-16T16:51:35;0.47;;;0.38;;
30583;SDS011;17357;59.404;18.414;2022-10-16T16:54:00;0.85;;;0.30;;
30583;SDS011;17357;59.404;18.414;2022-10-16T16:56:26;1.10;;;0.30;;
30583;SDS011;17357;59.404;18.414;2022-10-16T16:58:53;0.38;;;0.20;;
30583;SDS011;17357;59.404;18.414;2022-10-16T17:01:20;0.82;;;0.22;;